createdAt,value
2022-11-16T00:01:19.578Z,98885.66
2022-11-16T00:03:47.558Z,98879.06
2022-11-16T00:06:15.294Z,98887.09
2022-11-16T00:08:45.675Z,98883.94
2022-11-16T00:11:16.096Z,98878.84
2022-11-16T00:13:44.260Z,98875.94
2022-11-16T00:16:16.562Z,98879.31
2022-11-16T00:18:44.218Z,98878.28
2022-11-16T00:21:11.524Z,98887.00
2022-11-16T00:23:39.103Z,98886.50
2022-11-16T00:26:07.528Z,98886.00
2022-11-16T00:28:35.074Z,98893.53
2022-11-16T00:31:04.381Z,98887.94
2022-11-16T00:33:31.482Z,98888.19
2022-11-16T00:36:00.836Z,98893.34
2022-11-16T00:38:28.303Z,98881.41
2022-11-16T00:40:55.494Z,98884.09
2022-11-16T00:43:22.906Z,98869.03
2022-11-16T00:45:49.980Z,98867.28
2022-11-16T00:48:17.077Z,98871.41
2022-11-16T00:50:47.449Z,98862.94
2022-11-16T00:53:16.364Z,98865.59
2022-11-16T00:55:44.886Z,98865.09
2022-11-16T00:58:12.702Z,98856.34
2022-11-16T01:00:40.219Z,98865.34
2022-11-16T01:03:08.037Z,98863.16
2022-11-16T01:05:36.267Z,98860.22
2022-11-16T01:08:04.642Z,98849.50
2022-11-16T01:10:32.935Z,98858.75
2022-11-16T01:13:00.116Z,98854.59
2022-11-16T01:15:28.026Z,98855.28
2022-11-16T01:17:57.194Z,98846.56
2022-11-16T01:20:27.756Z,98848.72
2022-11-16T01:22:55.271Z,98857.00
2022-11-16T01:25:22.736Z,98844.38
2022-11-16T01:27:49.808Z,98843.91
2022-11-16T01:30:18.911Z,98838.75
2022-11-16T01:32:46.847Z,98832.91
2022-11-16T01:35:19.219Z,98837.03
2022-11-16T01:37:46.301Z,98825.81
2022-11-16T01:40:14.709Z,98823.88
2022-11-16T01:42:42.040Z,98825.81
2022-11-16T01:45:34.516Z,98819.72
2022-11-16T01:48:01.874Z,98825.34
2022-11-16T01:50:29.281Z,98830.44
2022-11-16T01:53:06.636Z,98824.56
2022-11-16T01:55:36.058Z,98828.94
2022-11-16T01:58:03.471Z,98827.00
2022-11-16T02:00:30.789Z,98829.22
2022-11-16T02:02:57.859Z,98828.72
2022-11-16T02:05:33.912Z,98837.75
2022-11-16T02:09:04.846Z,98839.66
2022-11-16T02:11:55.398Z,98838.22
2022-11-16T02:14:46.812Z,98836.50
2022-11-16T02:17:39.389Z,98846.94
2022-11-16T02:20:44.182Z,98850.09
2022-11-16T02:23:22.387Z,98850.84
2022-11-16T02:26:02.043Z,98845.75
2022-11-16T02:28:29.254Z,98853.53
2022-11-16T02:31:00.556Z,98853.03
2022-11-16T02:33:34.997Z,98853.91
2022-11-16T02:36:05.168Z,98849.81
2022-11-16T02:38:48.474Z,98840.31
2022-11-16T02:41:20.779Z,98839.13
2022-11-16T02:43:53.021Z,98841.53
2022-11-16T02:46:24.242Z,98837.63
2022-11-16T02:48:55.354Z,98830.13
2022-11-16T02:51:24.842Z,98834.50
2022-11-16T02:54:22.222Z,98827.72
2022-11-16T02:56:49.358Z,98830.09
2022-11-16T02:59:17.845Z,98831.78
2022-11-16T03:01:52.632Z,98831.78
2022-11-16T03:04:33.386Z,98830.28
2022-11-16T03:07:04.846Z,98828.59
2022-11-16T03:09:34.533Z,98831.53
2022-11-16T03:12:06.262Z,98836.94
2022-11-16T03:14:43.431Z,98829.41
2022-11-16T03:17:33.413Z,98824.28
2022-11-16T03:20:22.703Z,98822.34
2022-11-16T03:22:54.244Z,98814.06
2022-11-16T03:25:23.026Z,98812.38
2022-11-16T03:28:14.476Z,98818.22
2022-11-16T03:30:47.952Z,98811.41
2022-11-16T03:33:18.777Z,98813.34
2022-11-16T03:35:51.588Z,98811.84
2022-11-16T03:38:21.046Z,98812.31
2022-11-16T03:40:49.349Z,98805.53
2022-11-16T03:43:19.225Z,98815.47
2022-11-16T03:45:47.204Z,98814.03
2022-11-16T03:48:14.317Z,98807.22
2022-11-16T03:50:42.733Z,98803.34
2022-11-16T03:53:10.088Z,98801.16
2022-11-16T03:55:37.540Z,98800.66
2022-11-16T03:58:05.341Z,98804.78
2022-11-16T04:00:32.386Z,98798.22
2022-11-16T04:02:59.542Z,98797.50
2022-11-16T04:05:44.920Z,98795.53
2022-11-16T04:08:35.852Z,98797.47
2022-11-16T04:11:22.179Z,98786.00
2022-11-16T04:14:09.870Z,98790.38
2022-11-16T04:16:55.454Z,98786.00
2022-11-16T04:19:41.502Z,98789.16
2022-11-16T04:22:40.425Z,98786.91
2022-11-16T04:25:31.131Z,98793.19
2022-11-16T04:28:13.696Z,98791.72
2022-11-16T04:31:02.001Z,98790.78
2022-11-16T04:33:49.186Z,98789.06
2022-11-16T04:36:34.920Z,98794.25
2022-11-16T04:39:02.272Z,98796.41
2022-11-16T04:41:50.066Z,98798.84
2022-11-16T04:44:17.635Z,98795.97
2022-11-16T04:47:03.123Z,98792.81
2022-11-16T04:49:30.082Z,98789.94
2022-11-16T04:51:57.243Z,98803.06
2022-11-16T04:54:24.960Z,98796.25
2022-11-16T04:56:52.067Z,98802.31
2022-11-16T04:59:19.082Z,98800.91
2022-11-16T05:02:04.498Z,98797.72
2022-11-16T05:04:32.100Z,98797.97
2022-11-16T05:06:59.170Z,98797.50
2022-11-16T05:09:26.279Z,98794.34
2022-11-16T05:11:54.053Z,98790.47
2022-11-16T05:14:21.059Z,98792.16
2022-11-16T05:16:48.240Z,98807.47
2022-11-16T05:19:33.954Z,98798.94
2022-11-16T05:22:01.088Z,98808.81
2022-11-16T05:24:33.861Z,98806.59
2022-11-16T05:27:03.058Z,98802.94
2022-11-16T05:29:30.487Z,98801.47
2022-11-16T05:31:57.982Z,98809.72
2022-11-16T05:34:25.207Z,98808.78
2022-11-16T05:36:52.711Z,98810.28
2022-11-16T05:39:19.963Z,98815.16
2022-11-16T05:41:47.542Z,98816.59
2022-11-16T05:44:15.797Z,98814.19
2022-11-16T05:46:43.842Z,98818.09
2022-11-16T05:49:12.300Z,98823.69
2022-11-16T05:51:41.265Z,98832.66
2022-11-16T05:54:09.076Z,98828.03
2022-11-16T05:56:36.221Z,98831.44
2022-11-16T05:59:03.264Z,98832.91
2022-11-16T06:01:30.327Z,98837.06
2022-11-16T06:04:00.785Z,98838.72
2022-11-16T06:06:29.264Z,98840.19
2022-11-16T06:08:56.420Z,98840.94
2022-11-16T06:11:23.870Z,98833.38
2022-11-16T06:13:50.905Z,98834.34
2022-11-16T06:16:18.170Z,98837.75
2022-11-16T06:18:46.815Z,98834.03
2022-11-16T06:21:15.665Z,98840.28
2022-11-16T06:23:42.847Z,98851.38
2022-11-16T06:26:10.324Z,98840.16
2022-11-16T06:28:37.921Z,98840.16
2022-11-16T06:31:05.608Z,98846.03
2022-11-16T06:33:33.901Z,98845.31
2022-11-16T06:36:01.319Z,98849.47
2022-11-16T06:38:28.656Z,98844.13
2022-11-16T06:41:02.991Z,98852.81
2022-11-16T06:43:30.889Z,98849.91
2022-11-16T06:45:58.722Z,98856.00
2022-11-16T06:48:26.154Z,98860.41
2022-11-16T06:50:53.535Z,98863.59
2022-11-16T06:53:25.940Z,98865.59
2022-11-16T06:55:56.061Z,98866.09
2022-11-16T06:58:23.173Z,98868.78
2022-11-16T07:00:50.462Z,98872.94
2022-11-16T07:03:17.604Z,98872.19
2022-11-16T07:05:44.615Z,98879.19
2022-11-16T07:08:11.730Z,98876.78
2022-11-16T07:10:39.128Z,98879.75
2022-11-16T07:13:06.471Z,98881.94
2022-11-16T07:15:34.202Z,98893.38
2022-11-16T07:18:08.358Z,98890.94
2022-11-16T07:20:37.532Z,98900.16
2022-11-16T07:23:06.311Z,98905.50
2022-11-16T07:25:35.073Z,98903.59
2022-11-16T07:28:02.296Z,98900.16
2022-11-16T07:30:29.308Z,98905.75
2022-11-16T07:33:00.088Z,98912.81
2022-11-16T07:35:27.172Z,98911.16
2022-11-16T07:37:54.272Z,98919.44
2022-11-16T07:40:21.835Z,98911.91
2022-11-16T07:42:49.621Z,98913.09
2022-11-16T07:45:16.923Z,98914.31
2022-11-16T07:47:43.973Z,98920.38
2022-11-16T07:50:11.439Z,98922.06
2022-11-16T07:52:38.846Z,98914.75
2022-11-16T07:55:06.175Z,98915.38
2022-11-16T07:57:33.651Z,98915.09
2022-11-16T08:00:01.039Z,98919.88
2022-11-16T08:02:28.199Z,98922.28
2022-11-16T08:04:55.583Z,98920.34
2022-11-16T08:07:22.858Z,98930.53
2022-11-16T08:09:50.327Z,98918.84
2022-11-16T08:12:17.915Z,98929.72
2022-11-16T08:14:45.238Z,98924.59
2022-11-16T08:17:12.272Z,98917.31
2022-11-16T08:19:40.537Z,98919.75
2022-11-16T08:22:07.635Z,98924.19
2022-11-16T08:24:34.795Z,98932.22
2022-11-16T08:27:01.882Z,98928.09
2022-11-16T08:29:29.997Z,98922.28
2022-11-16T08:31:57.171Z,98933.25
2022-11-16T08:34:24.269Z,98930.56
2022-11-16T08:36:51.316Z,98941.06
2022-11-16T08:39:18.374Z,98936.94
2022-11-16T08:41:45.899Z,98940.16
2022-11-16T08:44:13.042Z,98938.25
2022-11-16T08:46:42.338Z,98937.59
2022-11-16T08:49:09.420Z,98944.91
2022-11-16T08:51:36.474Z,98947.41
2022-11-16T08:54:04.260Z,98950.34
2022-11-16T08:56:31.616Z,98951.13
2022-11-16T08:58:59.554Z,98958.47
2022-11-16T09:01:29.088Z,98956.53
2022-11-16T09:03:56.732Z,98960.19
2022-11-16T09:06:25.486Z,98966.03
2022-11-16T09:08:53.087Z,98970.44
2022-11-16T09:11:22.606Z,98969.50
2022-11-16T09:13:51.836Z,98969.28
2022-11-16T09:16:21.235Z,98972.47
2022-11-16T09:18:50.362Z,98977.63
2022-11-16T09:21:26.583Z,98972.50
2022-11-16T09:23:54.859Z,98973.00
2022-11-16T09:26:23.471Z,98983.03
2022-11-16T09:28:56.075Z,98982.31
2022-11-16T09:31:23.990Z,98982.81
2022-11-16T09:33:51.550Z,98987.25
2022-11-16T09:36:18.640Z,98994.78
2022-11-16T09:39:19.080Z,98991.66
2022-11-16T09:41:40.107Z,98996.03
2022-11-16T09:44:16.437Z,99005.78
2022-11-16T09:46:47.175Z,99001.41
2022-11-16T09:49:19.005Z,98997.06
2022-11-16T09:51:50.293Z,99001.75
2022-11-16T09:54:27.921Z,98994.66
2022-11-16T09:56:59.030Z,99003.94
2022-11-16T09:59:30.158Z,99006.13
2022-11-16T10:02:15.230Z,98999.81
2022-11-16T10:05:03.501Z,99003.47
2022-11-16T10:07:44.969Z,99001.78
2022-11-16T10:10:17.311Z,99008.13
2022-11-16T10:12:58.965Z,99009.09
2022-11-16T10:15:37.964Z,99006.19
2022-11-16T10:18:35.761Z,99009.59
2022-11-16T10:21:03.911Z,99003.03
2022-11-16T10:24:13.128Z,99007.69
2022-11-16T10:27:08.349Z,99012.31
2022-11-16T10:29:38.103Z,99015.25
2022-11-16T10:32:11.070Z,99022.78
2022-11-16T10:34:54.232Z,99018.91
2022-11-16T10:37:23.796Z,99021.34
2022-11-16T10:39:53.603Z,99031.34
2022-11-16T10:42:27.730Z,99028.88
2022-11-16T10:45:21.265Z,99034.03
2022-11-16T10:48:01.474Z,99030.59
2022-11-16T10:50:47.509Z,99035.50
2022-11-16T10:53:36.441Z,99041.38
2022-11-16T10:56:26.013Z,99038.50
2022-11-16T10:59:05.924Z,99043.16
2022-11-16T11:01:37.516Z,99048.75
2022-11-16T11:04:31.791Z,99054.59
2022-11-16T11:06:59.991Z,99055.72
2022-11-16T11:09:36.154Z,99051.53
2022-11-16T11:12:38.920Z,99053.44
2022-11-16T11:15:11.978Z,99060.28
2022-11-16T11:17:42.808Z,99055.47
2022-11-16T11:20:15.685Z,99062.31
2022-11-16T11:22:58.245Z,99051.41
2022-11-16T11:25:30.962Z,99055.59
2022-11-16T11:28:17.227Z,99059.47
2022-11-16T11:31:09.778Z,99043.94
2022-11-16T11:33:39.995Z,99044.41
2022-11-16T11:36:09.906Z,99047.13
2022-11-16T11:39:15.451Z,99042.25
2022-11-16T11:41:47.182Z,99031.25
2022-11-16T11:44:14.209Z,99034.69
2022-11-16T11:47:35.081Z,99026.66
2022-11-16T11:49:40.527Z,99023.72
2022-11-16T11:52:17.882Z,99026.66
2022-11-16T11:54:49.605Z,99018.88
2022-11-16T11:57:23.386Z,99019.59
2022-11-16T11:59:53.457Z,99011.56
2022-11-16T12:02:42.878Z,99008.38
2022-11-16T12:05:46.852Z,98995.72
2022-11-16T12:08:37.529Z,98990.13
2022-11-16T12:11:25.377Z,98988.88
2022-11-16T12:14:06.913Z,98985.00
2022-11-16T12:16:51.799Z,98987.19
2022-11-16T12:19:58.538Z,98984.25
2022-11-16T12:23:03.618Z,98980.84
2022-11-16T12:25:43.674Z,98983.25
2022-11-16T12:28:22.169Z,98984.75
2022-11-16T12:31:27.624Z,98976.69
2022-11-16T12:34:18.994Z,98975.22
2022-11-16T12:37:00.175Z,98971.06
2022-11-16T12:39:45.311Z,98966.94
2022-11-16T12:42:18.997Z,98960.34
2022-11-16T12:45:01.042Z,98958.13
2022-11-16T12:47:30.975Z,98954.72
2022-11-16T12:50:00.981Z,98942.53
2022-11-16T12:52:33.814Z,98951.53
2022-11-16T12:55:31.074Z,98950.53
2022-11-16T12:58:04.743Z,98938.38
2022-11-16T13:00:38.839Z,98934.44
2022-11-16T13:03:20.949Z,98931.50
2022-11-16T13:05:57.021Z,98926.13
2022-11-16T13:08:33.067Z,98929.53
2022-11-16T13:11:20.640Z,98924.88
2022-11-16T13:13:53.630Z,98912.94
2022-11-16T13:16:23.169Z,98915.63
2022-11-16T13:18:51.070Z,98906.59
2022-11-16T13:21:43.026Z,98900.72
2022-11-16T13:24:22.124Z,98901.66
2022-11-16T13:26:55.342Z,98896.31
2022-11-16T13:29:40.645Z,98896.09
2022-11-16T13:32:32.041Z,98904.88
2022-11-16T13:35:00.587Z,98899.78
2022-11-16T13:37:39.977Z,98901.66
2022-11-16T13:40:07.009Z,98898.47
2022-11-16T13:42:36.892Z,98899.69
2022-11-16T13:45:23.089Z,98894.59
2022-11-16T13:47:55.981Z,98885.06
2022-11-16T13:50:37.415Z,98879.00
2022-11-16T13:56:05.180Z,98879.41
2022-11-16T13:58:34.334Z,98870.38
2022-11-16T14:01:11.069Z,98873.50
2022-11-16T14:03:40.735Z,98870.03
2022-11-16T14:06:13.890Z,98865.38
2022-11-16T14:08:41.080Z,98863.75
2022-11-16T14:11:34.081Z,98863.72
2022-11-16T14:14:06.134Z,98869.25
2022-11-16T14:16:44.557Z,98864.56
2022-11-16T14:19:47.721Z,98861.44
2022-11-16T14:22:51.845Z,98863.06
2022-11-16T14:25:59.115Z,98860.34
2022-11-16T14:28:54.032Z,98854.97
2022-11-16T14:31:24.386Z,98864.75
2022-11-16T14:33:57.522Z,98868.84
2022-11-16T14:36:43.688Z,98863.19
2022-11-16T14:39:31.394Z,98867.03
2022-11-16T14:42:29.850Z,98865.53
2022-11-16T14:45:05.143Z,98858.09
2022-11-16T14:47:37.051Z,98860.97
2022-11-16T14:50:04.487Z,98862.38
2022-11-16T14:52:36.997Z,98861.63
2022-11-16T14:55:08.366Z,98863.72
2022-11-16T14:57:35.803Z,98859.28
2022-11-16T15:00:18.480Z,98858.63
2022-11-16T15:02:51.574Z,98854.72
2022-11-16T15:05:20.468Z,98848.97
2022-11-16T15:07:51.671Z,98851.84
2022-11-16T15:10:24.675Z,98848.41
2022-11-16T15:12:54.214Z,98850.47
2022-11-16T15:15:31.884Z,98848.50
2022-11-16T15:18:08.539Z,98855.31
2022-11-16T15:20:38.536Z,98843.41
2022-11-16T15:23:14.569Z,98841.59
2022-11-16T15:25:46.969Z,98840.34
2022-11-16T15:28:18.881Z,98845.72
2022-11-16T15:30:51.147Z,98839.50
2022-11-16T15:33:36.849Z,98840.47
2022-11-16T15:36:23.685Z,98843.28
2022-11-16T15:38:53.947Z,98839.34
2022-11-16T15:41:21.970Z,98839.78
2022-11-16T15:44:12.481Z,98837.47
2022-11-16T15:46:41.466Z,98834.78
2022-11-16T15:49:33.774Z,98844.41
2022-11-16T15:52:01.641Z,98848.09
2022-11-16T15:54:52.825Z,98846.09
2022-11-16T15:57:22.555Z,98833.22
2022-11-16T15:59:54.931Z,98832.13
2022-11-16T16:02:28.909Z,98836.38
2022-11-16T16:04:55.982Z,98833.91
2022-11-16T16:07:43.398Z,98835.44
2022-11-16T16:10:19.266Z,98838.28
2022-11-16T16:13:02.482Z,98824.31
2022-11-16T16:15:34.477Z,98832.34
2022-11-16T16:18:03.136Z,98831.19
2022-11-16T16:20:32.250Z,98830.72
2022-11-16T16:23:18.128Z,98834.13
2022-11-16T16:25:50.347Z,98827.72
2022-11-16T16:28:17.854Z,98827.81
2022-11-16T16:30:44.897Z,98829.00
2022-11-16T16:33:20.078Z,98833.13
2022-11-16T16:35:49.996Z,98841.09
2022-11-16T16:38:17.154Z,98840.03
2022-11-16T16:40:44.214Z,98834.25
2022-11-16T16:43:11.295Z,98842.53
2022-11-16T16:45:41.711Z,98846.16
2022-11-16T16:48:17.996Z,98843.28
2022-11-16T16:50:45.042Z,98847.63
2022-11-16T16:53:13.711Z,98856.03
2022-11-16T16:55:41.927Z,98851.63
2022-11-16T16:58:12.277Z,98853.28
2022-11-16T17:00:39.665Z,98851.41
2022-11-16T17:03:07.199Z,98853.69
2022-11-16T17:05:34.456Z,98851.69
2022-11-16T17:08:01.833Z,98861.56
2022-11-16T17:10:28.891Z,98855.50
2022-11-16T17:12:58.769Z,98865.50
2022-11-16T17:15:26.954Z,98874.56
2022-11-16T17:17:54.140Z,98872.88
2022-11-16T17:20:22.200Z,98877.00
2022-11-16T17:22:49.560Z,98871.97
2022-11-16T17:25:16.684Z,98865.94
2022-11-16T17:27:43.784Z,98862.50
2022-11-16T17:30:11.492Z,98858.44
2022-11-16T17:32:38.592Z,98861.19
2022-11-16T17:35:05.919Z,98860.25
2022-11-16T17:37:33.101Z,98866.16
2022-11-16T17:40:00.597Z,98864.25
2022-11-16T17:42:27.955Z,98869.44
2022-11-16T17:44:55.664Z,98866.13
2022-11-16T17:47:22.699Z,98863.50
2022-11-16T17:49:49.785Z,98861.06
2022-11-16T17:52:16.794Z,98861.88
2022-11-16T17:54:43.841Z,98867.00
2022-11-16T17:57:10.979Z,98870.00
2022-11-16T17:59:37.984Z,98869.31
2022-11-16T18:02:05.337Z,98865.41
2022-11-16T18:04:32.358Z,98864.94
2022-11-16T18:07:05.318Z,98863.97
2022-11-16T18:09:32.355Z,98875.47
2022-11-16T18:11:59.389Z,98863.31
2022-11-16T18:14:26.921Z,98865.31
2022-11-16T18:16:54.103Z,98872.84
2022-11-16T18:19:21.100Z,98874.56
2022-11-16T18:21:49.019Z,98873.34
2022-11-16T18:24:16.417Z,98877.00
2022-11-16T18:26:43.521Z,98877.50
2022-11-16T18:29:16.188Z,98879.22
2022-11-16T18:31:43.387Z,98879.94
2022-11-16T18:34:13.673Z,98883.34
2022-11-16T18:36:40.691Z,98885.78
2022-11-16T18:39:07.938Z,98880.69
2022-11-16T18:41:35.045Z,98875.09
2022-11-16T18:44:02.878Z,98882.13
2022-11-16T18:46:32.040Z,98880.19
2022-11-16T18:49:00.046Z,98880.44
2022-11-16T18:51:28.691Z,98885.06
2022-11-16T18:53:56.469Z,98873.13
2022-11-16T18:56:24.140Z,98873.59
2022-11-16T18:58:52.629Z,98875.81
2022-11-16T19:01:23.724Z,98878.69
2022-11-16T19:03:52.222Z,98877.72
2022-11-16T19:06:19.800Z,98878.44
2022-11-16T19:08:55.127Z,98879.69
2022-11-16T19:11:24.155Z,98877.94
2022-11-16T19:14:04.098Z,98880.41
2022-11-16T19:16:31.965Z,98874.53
2022-11-16T19:18:59.585Z,98872.63
2022-11-16T19:21:27.046Z,98881.16
2022-11-16T19:23:56.341Z,98882.38
2022-11-16T19:26:26.645Z,98890.66
2022-11-16T19:28:54.742Z,98885.28
2022-11-16T19:31:27.378Z,98888.19
2022-11-16T19:34:00.136Z,98886.75
2022-11-16T19:36:28.932Z,98894.53
2022-11-16T19:38:56.784Z,98887.75
2022-11-16T19:41:26.069Z,98890.41
2022-11-16T19:44:02.121Z,98890.66
2022-11-16T19:46:34.725Z,98889.16
2022-11-16T19:49:02.153Z,98887.00
2022-11-16T19:51:31.386Z,98890.88
2022-11-16T19:54:00.571Z,98902.06
2022-11-16T19:56:28.670Z,98894.28
2022-11-16T19:58:55.948Z,98900.84
2022-11-16T20:01:31.613Z,98911.31
2022-11-16T20:04:01.133Z,98909.59
2022-11-16T20:06:30.666Z,98906.91
2022-11-16T20:09:02.703Z,98910.31
2022-11-16T20:11:36.945Z,98906.69
2022-11-16T20:14:06.694Z,98911.53
2022-11-16T20:16:38.988Z,98918.59
2022-11-16T20:19:08.615Z,98920.53
2022-11-16T20:21:41.666Z,98928.09
2022-11-16T20:24:12.131Z,98926.88
2022-11-16T20:26:49.308Z,98931.03
2022-11-16T20:29:18.767Z,98925.66
2022-11-16T20:31:46.701Z,98928.59
2022-11-16T20:34:16.056Z,98927.84
2022-11-16T20:36:46.703Z,98935.41
2022-11-16T20:39:20.367Z,98935.41
2022-11-16T20:41:48.526Z,98933.97
2022-11-16T20:44:20.018Z,98937.84
2022-11-16T20:46:47.310Z,98940.28
2022-11-16T20:49:14.399Z,98939.03
2022-11-16T20:51:41.774Z,98948.28
2022-11-16T20:54:08.938Z,98950.00
2022-11-16T20:56:35.984Z,98949.25
2022-11-16T20:59:03.568Z,98945.59
2022-11-16T21:01:33.861Z,98950.97
2022-11-16T21:04:03.865Z,98953.88
2022-11-16T21:06:31.534Z,98950.00
2022-11-16T21:08:59.066Z,98955.59
2022-11-16T21:11:29.261Z,98964.38
2022-11-16T21:14:14.982Z,98968.00
2022-11-16T21:16:42.157Z,98962.88
2022-11-16T21:19:09.765Z,98953.13
2022-11-16T21:21:38.425Z,98968.22
2022-11-16T21:24:05.686Z,98967.50
2022-11-16T21:26:34.022Z,98964.34
2022-11-16T21:29:02.156Z,98973.81
2022-11-16T21:31:31.908Z,98970.88
2022-11-16T21:34:02.952Z,98975.28
2022-11-16T21:36:31.569Z,98978.91
2022-11-16T21:38:58.762Z,98974.50
2022-11-16T21:41:27.194Z,98975.25
2022-11-16T21:43:54.471Z,98976.00
2022-11-16T21:46:23.578Z,98979.88
2022-11-16T21:48:51.463Z,98978.41
2022-11-16T21:51:20.351Z,98977.69
2022-11-16T21:53:47.999Z,98975.94
2022-11-16T21:56:17.339Z,98974.75
2022-11-16T21:58:45.362Z,98976.22
2022-11-16T22:01:13.553Z,98973.53
2022-11-16T22:03:40.791Z,98969.41
2022-11-16T22:06:34.515Z,98973.53
2022-11-16T22:09:02.223Z,98968.19
2022-11-16T22:11:29.576Z,98973.31
2022-11-16T22:13:56.593Z,98965.72
2022-11-16T22:16:23.866Z,98956.00
2022-11-16T22:18:51.045Z,98960.16
2022-11-16T22:21:18.164Z,98962.31
2022-11-16T22:23:45.321Z,98955.47
2022-11-16T22:26:14.614Z,98948.66
2022-11-16T22:28:41.726Z,98955.47
2022-11-16T22:31:12.718Z,98951.13
2022-11-16T22:33:40.330Z,98951.13
2022-11-16T22:36:09.537Z,98947.97
2022-11-16T22:38:37.348Z,98946.50
2022-11-16T22:41:04.420Z,98946.50
2022-11-16T22:43:32.070Z,98950.66
2022-11-16T22:46:00.919Z,98944.81
2022-11-16T22:48:39.496Z,98945.56
2022-11-16T22:51:27.083Z,98937.50
2022-11-16T22:54:05.174Z,98946.94
2022-11-16T22:56:33.916Z,98940.16
2022-11-16T22:59:02.679Z,98937.50
2022-11-16T23:01:29.810Z,98938.69
2022-11-16T23:03:57.278Z,98932.84
2022-11-16T23:06:24.679Z,98932.31
2022-11-16T23:08:51.722Z,98931.81
2022-11-16T23:11:39.341Z,98928.69
2022-11-16T23:14:26.370Z,98938.41
2022-11-16T23:16:53.607Z,98931.34
2022-11-16T23:19:40.241Z,98929.16
2022-11-16T23:22:31.192Z,98918.22
2022-11-16T23:25:17.045Z,98918.22
2022-11-16T23:27:57.730Z,98911.38
2022-11-16T23:30:25.418Z,98906.53
2022-11-16T23:32:53.018Z,98907.94
2022-11-16T23:35:20.520Z,98909.69
2022-11-16T23:37:52.232Z,98910.19
2022-11-16T23:40:19.881Z,98911.91
2022-11-16T23:43:05.419Z,98919.69
2022-11-16T23:45:32.553Z,98925.03
2022-11-16T23:47:59.602Z,98924.00
2022-11-16T23:50:26.613Z,98926.22
2022-11-16T23:52:53.711Z,98925.47
2022-11-16T23:55:20.761Z,98920.38
2022-11-16T23:57:47.771Z,98925.44
